首页
METAR-TAF:

METAR-TAF

机场 :

南特, 法国

纬度: 47-10N, 经度: 001-36W, 海拔: 27米

当前天气观测

该预报发布于21分钟前的17:30 UTC
风速6节,风向
温度 6°C
湿度 87%
气压 1005 hPa
能见度10公里或以上
1500米以下无云,无积雨云

METAR: LFRS 201730Z AUTO 09006KT CAVOK 06/04 Q1005 NOSIG

时间: 18:51 (17:51 UTC)

预报

该预报发布于51分钟前的17:00 UTC
预报有效从20日的 18点(UTC)到 21日的 24点(UTC)
风速8节,风向
能见度10公里或以上
1500米以下无云,无积雨云
成为
从 21日的 00点(UTC)到 21日的 03点(UTC)
能見度: 4000
多云层高于2000英尺
小雨
短暂存在
从 21日的 03点(UTC)到 21日的 10点(UTC)
能見度: 2000
多云层高于800英尺
成为
从 21日的 10点(UTC)到 21日的 12点(UTC)
能见度10公里或以上
多云层高于3000英尺
短暂存在
从 21日的 10点(UTC)到 21日的 24点(UTC)
风速15节,风向南转西南,有时为25节阵风
能見度: 4000
多云层高于2500英尺, 积雨云.
阵雨

TAF: LFRS 201700Z 2018/2124 10008KT CAVOK BECMG 2100/2103 4000 -RA BKN020 TEMPO 2103/2110 2000 RA BKN008 BECMG 2110/2112 9999 NSW BKN030 TEMPO 2110/2124 20015G25KT 4000 SHRA BKN025CB

超过4000个机场的气象观测和天气预报(METAR&TAF报告)。

可查询的气象台以黄色和红色小点在地图上表示。

将鼠标移到小点上方,可查看气象台名称。

然后点击查看天气观测和预报。

如需切换地图:点击带黑十字的绿色按钮放大地图;点击带横线的绿色按钮缩小地图;或者点击绿色箭头查看邻近地区的地图。


METAR-TAF: